Rake, Iowa
Current Conditions -  °F | °C
As of 2:30 AM on Wednesday 26 Nov 2014 (Local Time) from KFXY Reporting Station
Light Snow Light Snow  
Wind Chill: 17°   Ceiling: 1400
Heat Index: 27°   Visibility: 1.5mi
Dew Point: 25°   Wind: 10mph
Humidity: 93%   Direction: 110°ESE
Pressure: 29.94"   Gusts: NA
Location:  43.48°N, 93.92°W
Report Text: KFXY 260830Z AUTO 11009KT 1 1/2SM -SN SCT004 BKN014 OVC025 M03/M04 A2994 RMK AO2
Loading
Personal Weather Stations






























Interactive Weather Map New forecast layout! Learn more

10-Day Weather Forecast

Advertisements
Track Severe Weather on mobile